Strona główna
METAR-TAF:

METAR-TAF

Lotnisko :

Monticello, Kentucky, Stany Zjednoczone

Szerokość geograficzna: 36-51-19N, Długość geograficzna: 084-51-22W, wysokość: 294 m

Aktualna obserwacja pogody

Raport powstał 34 minut temu, godzina 19:56 UTC
Wiatr 7 kt od północno-północny zachód
Temperatura 9°C
Wilgotność 76%
Ciśnienie 1027 hPa
Widzialność: 16.1 km
Zachmurzenie całkowite na wysokości 2300 ft

METAR: KEKQ 071956Z AUTO 33007KT 10SM OVC023 09/05 A3032 RMK AO2 WSHFT 1934 SLP265 T00940050 PWINO $

czas: 15:30 (20:30 UTC)


TAF: brakujący

Obserwacja i prognoza pogody dla ponad 4000 lotnisk (raport METAR i TAF).

Dostępne stacje oznaczono żółtymi i czerwonymi punktami na mapie.

Najedź kursorem aby zobaczyć nazwę stacji.

Kliknij aby zobaczyć obserwacje i prognozy pogody.

Aby zmienić mapę: kliknij na zielony przycisk z czarnym krzyżykiem, aby powiększyć; na zielony przycisk z myślnikiem, aby pomniejszyć; na zielone strzałki, aby przejść do map sąsiednich.


METAR-TAF: